createdAt,value
2023-02-12T00:05:42.155Z,37.60
2023-02-12T00:14:36.628Z,35.60
2023-02-12T00:17:07.956Z,33.90
2023-02-12T00:19:40.643Z,35.15
2023-02-12T00:22:13.203Z,32.90
2023-02-12T00:25:01.977Z,34.88
2023-02-12T00:31:09.525Z,32.10
2023-02-12T00:33:42.345Z,29.70
2023-02-12T00:36:18.316Z,33.53
2023-02-12T00:45:07.576Z,29.50
2023-02-12T00:47:41.348Z,30.77
2023-02-12T00:50:14.720Z,35.65
2023-02-12T00:52:48.233Z,35.10
2023-02-12T00:55:20.294Z,28.73
2023-02-12T01:04:13.830Z,34.53
2023-02-12T01:06:46.735Z,40.63
2023-02-12T01:12:30.718Z,29.52
2023-02-12T01:15:02.890Z,38.40
2023-02-12T01:22:29.331Z,37.38
2023-02-12T01:25:02.113Z,40.53
2023-02-12T01:31:06.254Z,32.28
2023-02-12T01:33:38.497Z,29.77
2023-02-12T01:36:09.950Z,32.65
2023-02-12T01:46:57.438Z,33.58
2023-02-12T01:52:38.203Z,35.60
2023-02-12T01:55:12.937Z,36.70
2023-02-12T02:01:14.976Z,28.83
2023-02-12T02:03:52.797Z,33.20
2023-02-12T02:06:31.052Z,29.48
2023-02-12T02:09:11.102Z,39.20
2023-02-12T02:12:01.312Z,34.60
2023-02-12T02:14:37.802Z,35.10
2023-02-12T02:21:48.524Z,41.42
2023-02-12T02:24:54.607Z,42.95
2023-02-12T02:27:33.949Z,37.25
2023-02-12T02:30:28.791Z,44.15
2023-02-12T02:33:14.805Z,42.38
2023-02-12T02:35:56.517Z,37.05
2023-02-12T02:38:36.818Z,42.88
2023-02-12T02:41:14.853Z,41.88
2023-02-12T02:43:52.142Z,43.35
2023-02-12T02:46:36.507Z,43.90
2023-02-12T02:52:44.481Z,46.88
2023-02-12T02:55:19.054Z,42.13
2023-02-12T02:57:54.977Z,40.63
2023-02-12T03:00:33.857Z,38.17
2023-02-12T03:03:37.948Z,43.63
2023-02-12T03:06:16.950Z,44.10
2023-02-12T03:08:53.251Z,39.40
2023-02-12T03:11:30.207Z,40.38
2023-02-12T03:14:07.448Z,37.80
2023-02-12T03:16:42.954Z,45.63
2023-02-12T03:22:34.226Z,31.77
2023-02-12T03:25:15.964Z,32.67
2023-02-12T03:27:53.247Z,35.50
2023-02-12T03:30:26.166Z,34.47
2023-02-12T03:33:08.084Z,34.97
2023-02-12T03:35:48.438Z,30.77
2023-02-12T03:46:21.332Z,28.08
2023-02-12T03:51:57.042Z,33.40
2023-02-12T03:54:31.146Z,36.58
2023-02-12T03:57:06.972Z,30.83
2023-02-12T04:02:51.057Z,33.30
2023-02-12T04:05:26.119Z,27.80
2023-02-12T04:25:26.791Z,31.42
2023-02-12T04:42:13.778Z,36.55
2023-02-12T04:44:56.256Z,31.38
2023-02-12T04:56:36.897Z,31.17
2023-02-12T04:59:07.057Z,28.95
2023-02-12T05:01:39.200Z,28.15
2023-02-12T05:04:10.727Z,30.25
2023-02-12T05:06:43.181Z,33.22
2023-02-12T05:09:17.908Z,26.75
2023-02-12T05:11:49.328Z,28.83
2023-02-12T05:14:19.643Z,29.02
2023-02-12T05:16:49.397Z,32.10
2023-02-12T05:19:19.299Z,27.42
2023-02-12T05:21:51.891Z,32.65
2023-02-12T05:24:21.424Z,29.90
2023-02-12T05:26:53.692Z,28.80
2023-02-12T05:29:23.948Z,31.83
2023-02-12T05:31:53.796Z,31.02
2023-02-12T05:34:24.284Z,32.53
2023-02-12T05:36:54.263Z,34.25
2023-02-12T05:39:25.565Z,28.08
2023-02-12T05:41:55.649Z,34.05
2023-02-12T05:44:24.077Z,28.10
2023-02-12T05:46:52.857Z,25.48
2023-02-12T05:49:21.472Z,32.55
2023-02-12T05:51:50.103Z,30.13
2023-02-12T05:54:18.418Z,31.38
2023-02-12T05:56:48.495Z,29.27
2023-02-12T05:59:20.380Z,27.30
2023-02-12T06:01:50.519Z,29.40
2023-02-12T06:04:20.560Z,30.58
2023-02-12T06:06:48.766Z,32.33
2023-02-12T06:09:17.937Z,39.35
2023-02-12T06:11:46.497Z,35.55
2023-02-12T06:14:16.555Z,36.20
2023-02-12T06:16:48.337Z,37.80
2023-02-12T06:19:17.834Z,36.00
2023-02-12T06:21:46.831Z,37.42
2023-02-12T06:24:17.106Z,40.60
2023-02-12T06:26:46.084Z,43.50
2023-02-12T06:29:14.692Z,47.15
2023-02-12T06:31:44.274Z,41.28
2023-02-12T06:34:18.187Z,46.90
2023-02-12T06:36:48.381Z,45.05
2023-02-12T06:39:18.381Z,40.58
2023-02-12T06:41:46.689Z,36.28
2023-02-12T06:44:15.337Z,42.40
2023-02-12T06:46:43.684Z,36.67
2023-02-12T06:49:16.467Z,34.63
2023-02-12T06:51:44.704Z,35.85
2023-02-12T06:54:18.737Z,37.20
2023-02-12T06:56:47.012Z,47.05
2023-02-12T06:59:17.106Z,37.83
2023-02-12T07:01:45.955Z,36.92
2023-02-12T07:04:16.056Z,40.05
2023-02-12T07:06:44.789Z,40.97
2023-02-12T07:09:13.305Z,36.55
2023-02-12T07:11:41.581Z,46.53
2023-02-12T07:14:14.722Z,42.45
2023-02-12T07:16:43.209Z,38.78
2023-02-12T07:19:14.476Z,34.22
2023-02-12T07:21:44.217Z,45.55
2023-02-12T07:24:13.202Z,41.75
2023-02-12T07:26:42.384Z,42.25
2023-02-12T07:29:10.815Z,43.10
2023-02-12T07:31:38.881Z,41.60
2023-02-12T07:34:07.409Z,41.20
2023-02-12T07:36:35.728Z,39.78
2023-02-12T07:39:06.391Z,37.10
2023-02-12T07:41:36.605Z,38.63
2023-02-12T07:44:07.634Z,44.85
2023-02-12T07:46:38.751Z,40.33
2023-02-12T07:49:11.110Z,45.92
2023-02-12T07:51:39.867Z,44.38
2023-02-12T07:54:11.549Z,49.08
2023-02-12T07:56:48.048Z,41.65
2023-02-12T07:59:18.516Z,41.65
2023-02-12T08:01:49.258Z,46.85
2023-02-12T08:08:20.824Z,39.85
2023-02-12T08:10:52.610Z,46.60
2023-02-12T08:13:21.356Z,40.15
2023-02-12T08:15:52.237Z,44.35
2023-02-12T08:18:20.762Z,44.50
2023-02-12T08:20:49.399Z,42.30
2023-02-12T08:23:17.878Z,42.38
2023-02-12T08:25:46.227Z,47.85
2023-02-12T08:28:15.912Z,44.85
2023-02-12T08:30:43.958Z,48.05
2023-02-12T08:33:12.050Z,41.55
2023-02-12T08:35:40.604Z,43.15
2023-02-12T08:38:08.878Z,41.30
2023-02-12T08:40:37.409Z,39.28
2023-02-12T08:43:05.574Z,39.85
2023-02-12T08:45:35.418Z,40.78
2023-02-12T08:48:03.619Z,42.95
2023-02-12T08:50:32.032Z,46.50
2023-02-12T08:53:00.297Z,44.33
2023-02-12T08:55:29.374Z,43.42
2023-02-12T08:57:58.366Z,40.80
2023-02-12T09:00:27.208Z,44.65
2023-02-12T09:02:57.369Z,43.80
2023-02-12T09:05:25.833Z,45.38
2023-02-12T09:07:54.686Z,36.28
2023-02-12T09:10:22.994Z,44.10
2023-02-12T09:12:51.129Z,41.42
2023-02-12T09:15:19.573Z,39.35
2023-02-12T09:17:50.448Z,43.00
2023-02-12T09:20:20.528Z,40.60
2023-02-12T09:22:48.692Z,45.05
2023-02-12T09:25:16.910Z,44.30
2023-02-12T09:27:45.116Z,40.42
2023-02-12T09:30:14.458Z,45.70
2023-02-12T09:32:42.723Z,43.03
2023-02-12T09:35:12.558Z,44.50
2023-02-12T09:37:44.636Z,46.10
2023-02-12T09:40:21.925Z,46.55
2023-02-12T09:43:04.161Z,43.85
2023-02-12T09:45:37.577Z,45.88
2023-02-12T09:48:28.454Z,44.72
2023-02-12T09:50:59.729Z,44.25
2023-02-12T09:53:31.866Z,48.28
2023-02-12T09:56:00.507Z,37.90
2023-02-12T09:58:35.648Z,41.00
2023-02-12T10:01:12.341Z,47.47
2023-02-12T10:03:41.044Z,43.63
2023-02-12T10:06:14.267Z,37.17
2023-02-12T10:08:56.499Z,38.05
2023-02-12T10:11:34.342Z,36.97
2023-02-12T10:14:15.832Z,33.30
2023-02-12T10:16:54.231Z,34.75
2023-02-12T10:19:39.580Z,20.23
2023-02-12T10:22:19.324Z,25.98
2023-02-12T10:25:03.041Z,27.58
2023-02-12T10:27:41.038Z,18.75
2023-02-12T10:30:19.610Z,16.40
2023-02-12T10:32:51.888Z,16.00
2023-02-12T10:35:22.731Z,16.38
2023-02-12T10:37:56.584Z,14.07
2023-02-12T10:40:30.192Z,16.48
2023-02-12T10:42:59.663Z,18.30
2023-02-12T10:45:31.747Z,15.45
2023-02-12T10:48:10.504Z,13.73
2023-02-12T10:50:48.883Z,14.98
2023-02-12T10:53:22.628Z,11.95
2023-02-12T10:56:12.027Z,13.63
2023-02-12T10:58:42.167Z,11.50
2023-02-12T11:01:18.624Z,14.43
2023-02-12T11:03:46.995Z,9.43
2023-02-12T11:06:17.292Z,11.20
2023-02-12T11:08:46.091Z,14.80
2023-02-12T11:11:21.424Z,14.52
2023-02-12T11:13:57.732Z,13.45
2023-02-12T11:16:31.511Z,14.80
2023-02-12T11:19:01.996Z,14.82
2023-02-12T11:21:30.219Z,13.38
2023-02-12T11:23:58.886Z,15.35
2023-02-12T11:26:30.319Z,13.93
2023-02-12T11:29:00.267Z,16.67
2023-02-12T11:31:30.507Z,17.65
2023-02-12T11:34:18.840Z,15.57
2023-02-12T11:36:50.025Z,17.30
2023-02-12T11:39:22.444Z,15.15
2023-02-12T11:41:55.198Z,19.73
2023-02-12T11:44:27.453Z,20.80
2023-02-12T11:47:02.115Z,19.52
2023-02-12T11:49:32.859Z,17.13
2023-02-12T11:52:03.994Z,22.73
2023-02-12T11:54:43.043Z,20.45
2023-02-12T11:57:36.165Z,22.20
2023-02-12T12:00:12.904Z,21.23
2023-02-12T12:02:46.847Z,21.48
2023-02-12T12:05:17.735Z,19.05
2023-02-12T12:07:51.335Z,16.27
2023-02-12T12:10:30.037Z,18.35
2023-02-12T12:13:05.049Z,21.52
2023-02-12T12:15:54.666Z,22.13
2023-02-12T12:18:46.995Z,15.77
2023-02-12T12:21:20.970Z,17.40
2023-02-12T12:23:56.597Z,19.98
2023-02-12T12:26:27.775Z,15.95
2023-02-12T12:29:06.194Z,15.05
2023-02-12T12:31:39.589Z,16.25
2023-02-12T12:34:12.239Z,19.85
2023-02-12T12:37:13.973Z,15.23
2023-02-12T12:39:58.928Z,14.30
2023-02-12T12:43:08.204Z,14.18
2023-02-12T12:46:06.162Z,9.23
2023-02-12T12:49:00.798Z,14.20
2023-02-12T12:51:42.475Z,8.77
2023-02-12T12:54:25.673Z,8.52
2023-02-12T12:57:03.692Z,11.02
2023-02-12T12:59:54.840Z,11.15
2023-02-12T13:02:54.131Z,11.10
2023-02-12T13:06:00.881Z,11.57
2023-02-12T13:08:47.553Z,10.00
2023-02-12T13:11:31.700Z,7.70
2023-02-12T13:14:10.045Z,9.98
2023-02-12T13:16:45.877Z,8.68
2023-02-12T13:19:26.445Z,9.10
2023-02-12T13:22:02.289Z,9.65
2023-02-12T13:24:40.000Z,9.55
2023-02-12T13:27:16.142Z,11.80
2023-02-12T13:29:48.605Z,7.53
2023-02-12T13:32:24.478Z,11.52
2023-02-12T13:37:45.010Z,9.35
2023-02-12T13:40:17.244Z,9.05
2023-02-12T13:42:51.928Z,9.43
2023-02-12T13:45:32.372Z,8.90
2023-02-12T13:48:26.501Z,10.73
2023-02-12T13:51:09.304Z,13.00
2023-02-12T13:53:50.241Z,8.20
2023-02-12T13:56:34.069Z,9.20
2023-02-12T13:59:02.316Z,8.65
2023-02-12T14:01:45.062Z,9.85
2023-02-12T14:04:31.657Z,9.23
2023-02-12T14:07:06.837Z,8.15
2023-02-12T14:09:41.402Z,8.93
2023-02-12T14:12:15.018Z,8.32
2023-02-12T14:14:46.917Z,9.32
2023-02-12T14:17:44.162Z,10.15
2023-02-12T14:20:25.963Z,8.55
2023-02-12T14:23:29.347Z,10.40
2023-02-12T14:26:14.586Z,7.32
2023-02-12T14:28:56.373Z,9.60
2023-02-12T14:31:36.377Z,8.43
2023-02-12T14:34:49.517Z,8.52
2023-02-12T14:37:38.485Z,8.52
2023-02-12T14:40:43.623Z,7.50
2023-02-12T14:43:33.885Z,9.30
2023-02-12T14:46:34.332Z,7.75
2023-02-12T14:49:06.135Z,8.63
2023-02-12T14:51:48.772Z,7.18
2023-02-12T14:54:33.772Z,6.20
2023-02-12T14:57:14.952Z,7.03
2023-02-12T14:59:53.292Z,7.47
2023-02-12T15:02:33.161Z,8.55
2023-02-12T15:05:20.933Z,7.40
2023-02-12T15:08:00.859Z,7.38
2023-02-12T15:10:42.694Z,6.95
2023-02-12T15:13:28.965Z,6.90
2023-02-12T15:16:11.053Z,7.97
2023-02-12T15:18:56.515Z,6.50
2023-02-12T15:21:31.592Z,5.68
2023-02-12T15:24:15.930Z,7.07
2023-02-12T15:26:55.726Z,6.75
2023-02-12T15:29:36.390Z,6.82
2023-02-12T15:32:13.553Z,6.88
2023-02-12T15:34:45.794Z,5.55
2023-02-12T15:37:33.606Z,5.75
2023-02-12T15:40:13.559Z,5.05
2023-02-12T15:42:56.169Z,4.65
2023-02-12T15:45:40.540Z,4.40
2023-02-12T15:48:35.823Z,5.70
2023-02-12T15:51:19.500Z,3.05
2023-02-12T15:53:59.096Z,4.18
2023-02-12T15:56:39.142Z,3.45
2023-02-12T15:59:23.346Z,3.35
2023-02-12T16:02:02.664Z,4.65
2023-02-12T16:04:37.400Z,5.25
2023-02-12T16:07:15.502Z,3.28
2023-02-12T16:09:51.197Z,3.50
2023-02-12T16:12:33.594Z,3.72
2023-02-12T16:15:09.178Z,3.90
2023-02-12T16:17:48.353Z,3.05
2023-02-12T16:20:30.887Z,3.72
2023-02-12T16:23:10.501Z,3.78
2023-02-12T16:25:49.627Z,3.90
2023-02-12T16:28:32.777Z,2.67
2023-02-12T16:31:17.621Z,4.20
2023-02-12T16:34:00.774Z,3.30
2023-02-12T16:36:36.110Z,3.95
2023-02-12T16:39:08.974Z,4.75
2023-02-12T16:41:59.291Z,4.60
2023-02-12T16:44:33.535Z,3.92
2023-02-12T16:47:08.588Z,5.10
2023-02-12T16:49:58.857Z,3.90
2023-02-12T16:52:43.104Z,4.25
2023-02-12T16:55:30.767Z,4.43
2023-02-12T16:59:07.168Z,4.28
2023-02-12T17:02:33.628Z,3.45
2023-02-12T17:05:20.202Z,4.22
2023-02-12T17:07:49.950Z,3.15
2023-02-12T17:10:23.130Z,4.18
2023-02-12T17:12:54.475Z,3.15
2023-02-12T17:15:31.560Z,3.72
2023-02-12T17:18:03.724Z,2.70
2023-02-12T17:20:48.279Z,3.22
2023-02-12T17:23:22.325Z,4.45
2023-02-12T17:25:58.314Z,2.92
2023-02-12T17:28:28.422Z,3.90
2023-02-12T17:31:04.022Z,4.15
2023-02-12T17:33:38.658Z,3.97
2023-02-12T17:36:16.165Z,4.50
2023-02-12T17:38:51.328Z,8.40
2023-02-12T17:41:21.322Z,3.88
2023-02-12T17:43:49.316Z,6.20
2023-02-12T17:46:20.689Z,5.03
2023-02-12T17:48:48.800Z,5.55
2023-02-12T17:51:18.404Z,5.25
2023-02-12T17:53:47.195Z,5.75
2023-02-12T17:56:17.188Z,4.32
2023-02-12T17:58:46.301Z,4.28
2023-02-12T18:01:17.138Z,4.40
2023-02-12T18:03:45.291Z,4.93
2023-02-12T18:06:16.572Z,4.13
2023-02-12T18:08:45.931Z,3.90
2023-02-12T18:11:14.727Z,4.45
2023-02-12T18:13:43.049Z,4.45
2023-02-12T18:16:12.414Z,4.50
2023-02-12T18:18:41.343Z,4.65
2023-02-12T18:21:10.928Z,6.70
2023-02-12T18:23:39.841Z,5.32
2023-02-12T18:26:11.961Z,6.25
2023-02-12T18:28:40.117Z,5.70
2023-02-12T18:31:09.413Z,7.82
2023-02-12T18:33:38.526Z,7.47
2023-02-12T18:36:09.394Z,7.43
2023-02-12T18:38:39.526Z,7.18
2023-02-12T18:41:10.214Z,6.65
2023-02-12T18:43:38.523Z,5.38
2023-02-12T18:46:07.889Z,6.22
2023-02-12T18:48:36.339Z,7.07
2023-02-12T18:51:05.877Z,8.25
2023-02-12T18:53:34.104Z,8.77
2023-02-12T18:56:05.388Z,7.93
2023-02-12T18:58:35.406Z,8.35
2023-02-12T19:01:12.469Z,11.07
2023-02-12T19:03:40.697Z,8.18
2023-02-12T19:06:09.104Z,6.57
2023-02-12T19:08:37.506Z,9.35
2023-02-12T19:11:07.166Z,9.38
2023-02-12T19:13:36.627Z,10.07
2023-02-12T19:16:07.775Z,17.75
2023-02-12T19:18:37.931Z,18.30
2023-02-12T19:21:07.630Z,12.05
2023-02-12T19:23:36.212Z,10.10
2023-02-12T19:26:06.358Z,11.27
2023-02-12T19:28:38.209Z,8.20
2023-02-12T19:31:15.645Z,8.85
2023-02-12T19:33:45.168Z,9.90
2023-02-12T19:36:16.207Z,8.32
2023-02-12T19:38:44.935Z,10.07
2023-02-12T19:41:15.048Z,11.10
2023-02-12T19:43:45.267Z,7.05
2023-02-12T19:46:16.898Z,8.50
2023-02-12T19:48:46.876Z,8.50
2023-02-12T19:51:16.154Z,8.48
2023-02-12T19:53:44.671Z,11.18
2023-02-12T19:56:13.349Z,8.60
2023-02-12T19:58:42.068Z,8.65
2023-02-12T20:01:13.579Z,9.10
2023-02-12T20:03:42.700Z,10.25
2023-02-12T20:06:15.528Z,8.50
2023-02-12T20:08:44.354Z,7.13
2023-02-12T20:11:14.525Z,8.88
2023-02-12T20:13:43.499Z,11.57
2023-02-12T20:16:16.126Z,7.85
2023-02-12T20:18:44.743Z,8.32
2023-02-12T20:21:14.604Z,7.53
2023-02-12T20:23:42.958Z,7.28
2023-02-12T20:26:14.624Z,7.28
2023-02-12T20:28:43.096Z,8.43
2023-02-12T20:31:16.431Z,9.75
2023-02-12T20:33:45.122Z,7.53
2023-02-12T20:36:15.449Z,10.63
2023-02-12T20:38:44.914Z,8.45
2023-02-12T20:41:13.694Z,11.07
2023-02-12T20:43:42.093Z,7.28
2023-02-12T20:46:14.234Z,8.65
2023-02-12T20:48:43.084Z,7.53
2023-02-12T20:51:12.845Z,9.05
2023-02-12T20:53:42.803Z,8.95
2023-02-12T20:56:13.010Z,9.10
2023-02-12T20:58:44.906Z,8.60
2023-02-12T21:01:17.473Z,10.07
2023-02-12T21:03:46.495Z,9.50
2023-02-12T21:06:15.227Z,8.70
2023-02-12T21:08:44.138Z,6.78
2023-02-12T21:11:15.394Z,9.10
2023-02-12T21:13:53.853Z,9.75
2023-02-12T21:16:34.443Z,7.43
2023-02-12T21:19:03.392Z,12.60
2023-02-12T21:21:33.443Z,10.43
2023-02-12T21:24:03.702Z,10.20
2023-02-12T21:26:33.644Z,10.20
2023-02-12T21:29:03.140Z,9.38
2023-02-12T21:31:35.207Z,9.95
2023-02-12T21:34:04.957Z,8.88
2023-02-12T21:36:34.685Z,9.50
2023-02-12T21:39:04.159Z,11.05
2023-02-12T21:41:35.800Z,9.90
2023-02-12T21:44:06.748Z,11.77
2023-02-12T21:46:36.863Z,12.00
2023-02-12T21:49:06.321Z,9.00
2023-02-12T21:51:37.708Z,11.18
2023-02-12T21:54:08.450Z,10.00
2023-02-12T21:56:37.876Z,12.48
2023-02-12T21:59:08.811Z,9.90
2023-02-12T22:01:43.318Z,9.50
2023-02-12T22:04:12.375Z,13.07
2023-02-12T22:06:42.822Z,9.98
2023-02-12T22:09:13.067Z,11.77
2023-02-12T22:11:42.254Z,9.07
2023-02-12T22:14:14.395Z,9.90
2023-02-12T22:16:44.666Z,11.38
2023-02-12T22:19:13.017Z,11.98
2023-02-12T22:21:43.713Z,12.88
2023-02-12T22:24:14.201Z,9.43
2023-02-12T22:26:43.042Z,16.08
2023-02-12T22:29:13.957Z,12.48
2023-02-12T22:31:45.367Z,11.93
2023-02-12T22:34:15.468Z,10.73
2023-02-12T22:36:44.876Z,10.57
2023-02-12T22:39:14.441Z,11.60
2023-02-12T22:41:43.191Z,13.57
2023-02-12T22:44:13.418Z,15.73
2023-02-12T22:46:43.768Z,11.25
2023-02-12T22:49:12.275Z,15.50
2023-02-12T22:51:41.544Z,12.43
2023-02-12T22:54:13.964Z,10.38
2023-02-12T22:56:42.311Z,11.57
2023-02-12T22:59:11.626Z,11.57
2023-02-12T23:01:40.427Z,15.10
2023-02-12T23:04:15.225Z,19.08
2023-02-12T23:06:43.981Z,11.02
2023-02-12T23:09:15.336Z,14.43
2023-02-12T23:11:43.542Z,11.27
2023-02-12T23:14:12.152Z,18.67
2023-02-12T23:16:40.348Z,16.05
2023-02-12T23:19:08.468Z,13.88
2023-02-12T23:21:38.096Z,12.88
2023-02-12T23:24:06.911Z,11.50
2023-02-12T23:26:36.773Z,14.50
2023-02-12T23:29:05.058Z,11.77
2023-02-12T23:31:33.387Z,16.08
2023-02-12T23:34:01.840Z,13.30
2023-02-12T23:36:30.028Z,13.90
2023-02-12T23:39:00.119Z,12.90
2023-02-12T23:41:28.402Z,16.00
2023-02-12T23:43:56.495Z,16.73
2023-02-12T23:46:24.670Z,14.10
2023-02-12T23:48:53.032Z,15.18
2023-02-12T23:51:21.446Z,14.45
2023-02-12T23:53:49.724Z,17.83
2023-02-12T23:56:19.124Z,14.80
2023-02-12T23:58:47.794Z,17.35
